Time;durP1;ratioP1;P1;durP2;ratioP2;P2;SDS_P1;SDS_P2;PMS_P1;PMS_P2;Temp;Humidity;BMP_temperature;BMP_pressure;BME280_temperature;BME280_humidity;BME280_pressure;Samples;Min_cycle;Max_cycle;Signal;HPM_P1;HPM_P2
2023/01/08 00:01:37;;;;;;;;;;;;;;;;;;4930304;28;20391;-61
2023/01/08 00:04:03;;;;;;;15.85;7.22;;;;;;;;;;4925447;28;20333;-61
2023/01/08 00:06:30;;;;;;;20.25;7.65;;;;;;;;;;4941293;28;20436;-61
2023/01/08 00:08:56;;;;;;;20.90;8.82;;;;;;;;;;4929675;28;20449;-65
2023/01/08 00:11:22;;;;;;;18.98;8.23;;;;;;;;;;4934010;28;20035;-61
2023/01/08 00:13:48;;;;;;;18.38;7.93;;;;;;;;;;4927483;28;20441;-61
2023/01/08 00:16:16;;;;;;;18.73;7.65;;;;;;;;;;4931583;28;20481;-61
2023/01/08 00:18:42;;;;;;;19.65;8.32;;;;;;;;;;4925793;28;20466;-61
2023/01/08 00:21:08;;;;;;;17.02;7.25;;;;;;;;;;4921398;28;20038;-61
2023/01/08 00:23:36;;;;;;;18.05;7.47;;;;;;;;;;4929269;28;20725;-65
2023/01/08 00:26:07;;;;;;;21.75;7.72;;;;;;;;;;4938464;28;20046;-61
2023/01/08 00:28:33;;;;;;;19.05;7.53;;;;;;;;;;4928513;28;20422;-62
2023/01/08 00:31:00;;;;;;;14.60;6.95;;;;;;;;;;4927886;28;20453;-61
2023/01/08 00:33:26;;;;;;;;;;;;;;;;;;4948632;28;20662;-61
2023/01/08 00:35:52;;;;;;;21.85;7.22;;;;;;;;;;4926321;28;20301;-63
2023/01/08 00:38:18;;;;;;;20.63;7.43;;;;;;;;;;4927997;28;20098;-64
2023/01/08 00:40:44;;;;;;;20.90;7.85;;;;;;;;;;4931848;28;20405;-60
2023/01/08 00:43:10;;;;;;;17.15;7.45;;;;;;;;;;4929294;28;20484;-62
2023/01/08 00:45:36;;;;;;;19.75;7.05;;;;;;;;;;4931672;28;20552;-61
2023/01/08 00:48:02;;;;;;;22.27;7.80;;;;;;;;;;4939201;28;21009;-61
2023/01/08 00:50:29;;;;;;;17.38;7.70;;;;;;;;;;4930013;28;20484;-61
2023/01/08 00:52:55;;;;;;;17.98;8.23;;;;;;;;;;4937337;28;20034;-61
2023/01/08 00:55:21;;;;;;;20.77;7.75;;;;;;;;;;4932837;28;20082;-61
2023/01/08 00:57:47;;;;;;;20.70;7.90;;;;;;;;;;4929412;28;20062;-60
2023/01/08 01:00:14;;;;;;;15.88;7.82;;;;;;;;;;4931818;28;21240;-61
2023/01/08 01:02:41;;;;;;;19.67;7.45;;;;;;;;;;4930359;28;20351;-60
2023/01/08 01:05:08;;;;;;;17.48;8.23;;;;;;;;;;4925906;28;21635;-61
2023/01/08 01:07:34;;;;;;;16.80;7.07;;;;;;;;;;4932108;28;20050;-61
2023/01/08 01:10:02;;;;;;;17.15;7.03;;;;;;;;;;4928625;28;20140;-61
2023/01/08 01:12:29;;;;;;;18.45;7.50;;;;;;;;;;4931208;28;20038;-61
2023/01/08 01:14:55;;;;;;;14.88;7.40;;;;;;;;;;4925172;28;20042;-63
2023/01/08 01:17:21;;;;;;;14.75;7.07;;;;;;;;;;4925055;28;20117;-63
2023/01/08 01:19:47;;;;;;;17.45;7.60;;;;;;;;;;4926725;28;20067;-61
2023/01/08 01:22:14;;;;;;;;;;;;;;;;;;4929842;28;20552;-60
2023/01/08 01:24:40;;;;;;;16.63;7.20;;;;;;;;;;4929111;28;19914;-64
2023/01/08 01:27:06;;;;;;;15.45;7.40;;;;;;;;;;4928647;28;20545;-71
2023/01/08 01:29:32;;;;;;;15.93;6.70;;;;;;;;;;4926284;28;20308;-68
2023/01/08 01:31:58;;;;;;;15.07;6.68;;;;;;;;;;4927215;28;20045;-68
2023/01/08 01:34:24;;;;;;;19.40;7.03;;;;;;;;;;4923455;28;20034;-67
2023/01/08 01:36:50;;;;;;;17.17;7.38;;;;;;;;;;4941217;28;20046;-68
2023/01/08 01:39:18;;;;;;;17.20;7.18;;;;;;;;;;4928992;28;20042;-68
2023/01/08 01:41:46;;;;;;;16.83;7.40;;;;;;;;;;4929572;28;20043;-68
2023/01/08 01:44:47;;;;;;;16.73;7.53;;;;;;;;;;4932091;28;20080;-69
2023/01/08 01:47:32;;;;;;;17.70;7.57;;;;;;;;;;4864594;29;20723;-69
2023/01/08 01:50:01;;;;;;;18.52;7.90;;;;;;;;;;4864964;29;20484;-68
2023/01/08 01:52:28;;;;;;;19.05;8.25;;;;;;;;;;4867175;29;20036;-68
2023/01/08 01:54:54;;;;;;;17.98;7.68;;;;;;;;;;4864513;29;20475;-68
2023/01/08 01:57:20;;;;;;;;;;;;;;;;;;4852769;29;20458;-68
2023/01/08 01:59:47;;;;;;;16.75;7.25;;;;;;;;;;4870165;29;19951;-67
2023/01/08 02:02:13;;;;;;;14.40;6.20;;;;;;;;;;4871757;29;20094;-67
2023/01/08 02:04:39;;;;;;;14.75;6.07;;;;;;;;;;4867150;29;20024;-68
2023/01/08 02:07:09;;;;;;;15.70;5.97;;;;;;;;;;4863438;29;20124;-67
2023/01/08 02:09:48;;;;;;;16.52;5.35;;;;;;;;;;4870030;29;20515;-67
2023/01/08 02:12:32;;;;;;;17.02;6.07;;;;;;;;;;4852986;29;20040;-67
2023/01/08 02:15:01;;;;;;;15.18;6.00;;;;;;;;;;4866533;29;20538;-68
2023/01/08 02:17:30;;;;;;;16.48;5.47;;;;;;;;;;4867425;29;20636;-64
2023/01/08 02:19:59;;;;;;;17.45;6.25;;;;;;;;;;4866841;29;20052;-64
2023/01/08 02:22:34;;;;;;;17.55;6.35;;;;;;;;;;4930883;28;20051;-68
2023/01/08 02:25:09;;;;;;;16.63;5.95;;;;;;;;;;4937463;28;20206;-67
2023/01/08 02:27:35;;;;;;;19.30;6.22;;;;;;;;;;4938249;28;20039;-67
2023/01/08 02:30:02;;;;;;;16.17;6.40;;;;;;;;;;4933006;28;20027;-67
2023/01/08 02:32:33;;;;;;;16.45;5.97;;;;;;;;;;4937126;28;20038;-67
2023/01/08 02:34:59;;;;;;;18.30;6.25;;;;;;;;;;4932946;28;20034;-68
2023/01/08 02:37:25;;;;;;;19.63;6.25;;;;;;;;;;4938579;28;20063;-68
2023/01/08 02:40:04;;;;;;;20.52;6.85;;;;;;;;;;4934237;28;20647;-68
2023/01/08 02:42:34;;;;;;;21.05;6.60;;;;;;;;;;4933694;28;20220;-68
2023/01/08 02:45:18;;;;;;;16.25;6.60;;;;;;;;;;4927211;28;20621;-67
2023/01/08 02:48:06;;;;;;;18.50;6.50;;;;;;;;;;4932695;28;20027;-67
2023/01/08 02:50:37;;;;;;;19.42;7.10;;;;;;;;;;4931601;28;20138;-65
2023/01/08 02:53:36;;;;;;;21.33;6.50;;;;;;;;;;4932117;28;20118;-68
2023/01/08 02:56:07;;;;;;;17.55;6.40;;;;;;;;;;4889003;29;20275;-64
2023/01/08 02:58:35;;;;;;;19.55;6.75;;;;;;;;;;4888680;29;20051;-68
2023/01/08 03:01:02;;;;;;;21.95;7.03;;;;;;;;;;4889665;29;20538;-68
2023/01/08 03:03:29;;;;;;;17.45;6.20;;;;;;;;;;4892922;29;20032;-68
2023/01/08 03:06:04;;;;;;;16.63;6.53;;;;;;;;;;4885374;29;20703;-68
2023/01/08 03:08:31;;;;;;;16.90;6.25;;;;;;;;;;4886963;29;20639;-67
2023/01/08 03:11:04;;;;;;;19.10;6.55;;;;;;;;;;4867458;29;20032;-67
2023/01/08 03:13:42;;;;;;;21.58;6.97;;;;;;;;;;4884360;29;20585;-68
2023/01/08 03:16:11;;;;;;;21.05;6.40;;;;;;;;;;4880224;29;20044;-67
2023/01/08 03:18:40;;;;;;;18.13;6.18;;;;;;;;;;4885575;29;20040;-68
2023/01/08 03:21:06;;;;;;;17.33;6.07;;;;;;;;;;4882714;29;20079;-67
2023/01/08 03:23:34;;;;;;;18.77;6.32;;;;;;;;;;4888762;29;20043;-68
2023/01/08 03:26:01;;;;;;;20.30;6.65;;;;;;;;;;4880272;29;20074;-68
2023/01/08 03:28:31;;;;;;;17.63;6.53;;;;;;;;;;4876508;29;20032;-68
2023/01/08 03:30:58;;;;;;;16.85;6.55;;;;;;;;;;4892884;28;20046;-68
2023/01/08 03:33:25;;;;;;;25.17;7.13;;;;;;;;;;4934530;28;20327;-67
2023/01/08 03:35:52;;;;;;;19.13;6.05;;;;;;;;;;4930033;28;20037;-68
2023/01/08 03:38:22;;;;;;;19.38;6.40;;;;;;;;;;4937848;28;20058;-68
2023/01/08 03:40:50;;;;;;;15.75;6.10;;;;;;;;;;4942423;28;20129;-68
2023/01/08 03:43:16;;;;;;;20.83;6.95;;;;;;;;;;4937707;28;20038;-69
2023/01/08 03:45:46;;;;;;;21.80;7.32;;;;;;;;;;4932295;28;20595;-68
2023/01/08 03:48:12;;;;;;;18.90;6.72;;;;;;;;;;4933316;28;20056;-68
2023/01/08 03:50:39;;;;;;;24.00;6.90;;;;;;;;;;4936096;28;20052;-68
2023/01/08 03:53:07;;;;;;;19.65;6.90;;;;;;;;;;4930750;28;20114;-69
2023/01/08 03:55:33;;;;;;;22.05;7.18;;;;;;;;;;4935422;28;20066;-66
2023/01/08 03:57:59;;;;;;;20.27;7.22;;;;;;;;;;4929349;28;20039;-66
2023/01/08 04:00:26;;;;;;;18.83;6.28;;;;;;;;;;4932572;28;20481;-65
2023/01/08 04:02:52;;;;;;;21.38;6.97;;;;;;;;;;4928920;28;20031;-65
2023/01/08 04:05:18;;;;;;;21.75;7.32;;;;;;;;;;4935407;28;20133;-64
2023/01/08 04:07:44;;;;;;;19.05;6.30;;;;;;;;;;4936498;28;20050;-66
2023/01/08 04:10:10;;;;;;;21.02;7.13;;;;;;;;;;4930169;28;20085;-65
2023/01/08 04:12:36;;;;;;;19.58;6.35;;;;;;;;;;4933919;28;20785;-67
2023/01/08 04:15:03;;;;;;;17.58;6.80;;;;;;;;;;4939880;28;20062;-64
2023/01/08 04:17:29;;;;;;;;;;;;;;;;;;4935885;28;20026;-67
2023/01/08 04:19:55;;;;;;;18.63;7.15;;;;;;;;;;4930040;28;19918;-66
2023/01/08 04:22:21;;;;;;;18.65;6.40;;;;;;;;;;4935635;28;20409;-66
2023/01/08 04:24:47;;;;;;;21.73;6.35;;;;;;;;;;4935909;28;20529;-67
2023/01/08 04:27:13;;;;;;;22.23;6.85;;;;;;;;;;4928684;28;20067;-68
2023/01/08 04:29:40;;;;;;;19.85;6.32;;;;;;;;;;4932453;28;20033;-65
2023/01/08 04:32:06;;;;;;;21.92;7.20;;;;;;;;;;4943985;28;20093;-63
2023/01/08 04:34:32;;;;;;;21.25;6.63;;;;;;;;;;4936432;28;20038;-69
2023/01/08 04:36:58;;;;;;;21.45;6.63;;;;;;;;;;4931278;28;20762;-66
2023/01/08 04:39:25;;;;;;;18.73;6.18;;;;;;;;;;4933798;28;20031;-66
2023/01/08 04:41:51;;;;;;;22.83;6.40;;;;;;;;;;4925775;28;20126;-64
2023/01/08 04:44:17;;;;;;;17.75;6.25;;;;;;;;;;4932452;28;20066;-66
2023/01/08 04:46:43;;;;;;;19.08;6.65;;;;;;;;;;4928259;28;20042;-65
2023/01/08 04:49:10;;;;;;;21.40;6.60;;;;;;;;;;4944264;28;20560;-67
2023/01/08 04:51:36;;;;;;;;;;;;;;;;;;4932142;28;20035;-65
2023/01/08 04:54:02;;;;;;;21.77;6.70;;;;;;;;;;4932865;28;19910;-67
2023/01/08 04:56:29;;;;;;;18.73;6.47;;;;;;;;;;4930423;28;20031;-67
2023/01/08 04:58:55;;;;;;;20.85;6.68;;;;;;;;;;4930840;28;20030;-67
2023/01/08 05:01:22;;;;;;;18.08;6.10;;;;;;;;;;4948102;28;20089;-69
2023/01/08 05:03:52;;;;;;;20.63;6.13;;;;;;;;;;4933112;28;20262;-67
2023/01/08 05:06:18;;;;;;;20.02;5.95;;;;;;;;;;4932788;28;20031;-69
2023/01/08 05:08:45;;;;;;;21.30;6.53;;;;;;;;;;4933419;28;20035;-67
2023/01/08 05:11:11;;;;;;;20.10;6.90;;;;;;;;;;4930154;28;20033;-70
2023/01/08 05:13:37;;;;;;;24.40;6.63;;;;;;;;;;4934903;28;20401;-65
2023/01/08 05:16:03;;;;;;;19.42;6.03;;;;;;;;;;4929499;28;20080;-68
2023/01/08 05:18:29;;;;;;;25.88;7.15;;;;;;;;;;4936130;28;20039;-64
2023/01/08 05:20:59;;;;;;;23.90;7.00;;;;;;;;;;4929899;28;20131;-65
2023/01/08 05:23:25;;;;;;;25.33;6.65;;;;;;;;;;4931722;28;20035;-65
2023/01/08 05:25:52;;;;;;;25.05;6.40;;;;;;;;;;4929732;28;20043;-65
2023/01/08 05:28:18;;;;;;;22.48;6.85;;;;;;;;;;4930520;28;20027;-66
2023/01/08 05:30:44;;;;;;;23.90;6.88;;;;;;;;;;4933619;28;20512;-67
2023/01/08 05:33:10;;;;;;;30.02;6.90;;;;;;;;;;4930087;28;20379;-65
2023/01/08 05:35:38;;;;;;;20.60;6.55;;;;;;;;;;4933463;28;20062;-68
2023/01/08 05:38:04;;;;;;;24.80;6.82;;;;;;;;;;4930224;28;20646;-68
2023/01/08 05:40:30;;;;;;;19.92;6.47;;;;;;;;;;4932941;28;20026;-69
2023/01/08 05:42:58;;;;;;;23.20;6.63;;;;;;;;;;4925534;28;20432;-69
2023/01/08 05:45:25;;;;;;;22.10;6.82;;;;;;;;;;4932169;28;20079;-67
2023/01/08 05:47:51;;;;;;;26.02;7.05;;;;;;;;;;4925482;28;20066;-65
2023/01/08 05:50:17;;;;;;;23.30;6.63;;;;;;;;;;4935972;28;20034;-72
2023/01/08 05:52:43;;;;;;;18.35;5.90;;;;;;;;;;4928937;28;20459;-73
2023/01/08 05:55:09;;;;;;;22.52;6.65;;;;;;;;;;4941025;28;20059;-67
2023/01/08 05:57:35;;;;;;;26.15;7.10;;;;;;;;;;4932016;28;21133;-64
2023/01/08 06:00:02;;;;;;;21.65;6.07;;;;;;;;;;4930996;28;20453;-67
2023/01/08 06:02:28;;;;;;;;;;;;;;;;;;4931742;28;20086;-66
2023/01/08 06:04:54;;;;;;;22.13;6.55;;;;;;;;;;4928052;28;20044;-65
2023/01/08 06:07:20;;;;;;;20.20;6.47;;;;;;;;;;4929758;28;20026;-64
2023/01/08 06:09:46;;;;;;;24.17;6.55;;;;;;;;;;4945079;28;20477;-74
2023/01/08 06:12:13;;;;;;;18.42;6.43;;;;;;;;;;4931757;28;20060;-65
2023/01/08 06:14:39;;;;;;;19.45;6.35;;;;;;;;;;4929797;28;20451;-66
2023/01/08 06:17:05;;;;;;;22.77;6.07;;;;;;;;;;4931478;28;20045;-66
2023/01/08 06:19:31;;;;;;;21.65;6.07;;;;;;;;;;4932228;28;20105;-67
2023/01/08 06:21:57;;;;;;;23.98;6.75;;;;;;;;;;4927615;28;20113;-67
2023/01/08 06:24:24;;;;;;;25.70;6.55;;;;;;;;;;4934165;28;20039;-67
2023/01/08 06:26:50;;;;;;;22.70;6.72;;;;;;;;;;4930743;28;20027;-70
2023/01/08 06:29:16;;;;;;;21.05;6.55;;;;;;;;;;4934001;28;20121;-69
2023/01/08 06:31:42;;;;;;;25.45;6.85;;;;;;;;;;4927448;28;20031;-66
2023/01/08 06:34:08;;;;;;;21.85;6.20;;;;;;;;;;4924432;28;20041;-67
2023/01/08 06:36:34;;;;;;;22.52;6.40;;;;;;;;;;4927852;28;20051;-67
2023/01/08 06:39:00;;;;;;;19.58;6.53;;;;;;;;;;4929868;28;20038;-64
2023/01/08 06:41:26;;;;;;;21.90;6.88;;;;;;;;;;4933618;28;20077;-68
2023/01/08 06:43:53;;;;;;;23.58;6.72;;;;;;;;;;4930517;28;20145;-68
2023/01/08 06:46:19;;;;;;;29.30;7.35;;;;;;;;;;4933990;28;20117;-64
2023/01/08 06:48:45;;;;;;;26.25;7.10;;;;;;;;;;4927463;28;20033;-66
2023/01/08 06:51:11;;;;;;;20.15;6.03;;;;;;;;;;4925961;28;20556;-64
2023/01/08 06:53:37;;;;;;;22.20;6.70;;;;;;;;;;4931164;28;20139;-65
2023/01/08 06:56:03;;;;;;;21.63;6.45;;;;;;;;;;4941234;28;20039;-67
2023/01/08 06:58:30;;;;;;;24.83;6.50;;;;;;;;;;4930084;28;20035;-65
2023/01/08 07:00:57;;;;;;;29.60;7.20;;;;;;;;;;4930476;28;20030;-67
2023/01/08 07:03:24;;;;;;;32.88;7.30;;;;;;;;;;4929657;28;20038;-67
2023/01/08 07:05:50;;;;;;;;;;;;;;;;;;4929643;28;20805;-67
2023/01/08 07:08:16;;;;;;;24.17;7.70;;;;;;;;;;4929096;28;21781;-66
2023/01/08 07:10:43;;;;;;;23.33;7.15;;;;;;;;;;4927677;28;20035;-68
2023/01/08 07:13:11;;;;;;;24.65;7.38;;;;;;;;;;4928513;28;20131;-67
2023/01/08 07:15:37;;;;;;;24.23;7.80;;;;;;;;;;4931706;28;20046;-66
2023/01/08 07:18:07;;;;;;;28.20;7.80;;;;;;;;;;4930462;28;20058;-71
2023/01/08 07:20:33;;;;;;;23.90;6.68;;;;;;;;;;4928374;28;20118;-68
2023/01/08 07:22:59;;;;;;;;;;;;;;;;;;4932352;28;20034;-67
2023/01/08 07:25:25;;;;;;;24.95;6.75;;;;;;;;;;4931035;28;20443;-68
2023/01/08 07:27:51;;;;;;;29.27;7.70;;;;;;;;;;4929569;28;20542;-71
2023/01/08 07:30:18;;;;;;;27.08;7.25;;;;;;;;;;4932103;28;20579;-66
2023/01/08 07:32:44;;;;;;;27.55;7.10;;;;;;;;;;4930293;28;20130;-68
2023/01/08 07:35:10;;;;;;;24.90;6.53;;;;;;;;;;4930604;28;20446;-69
2023/01/08 07:37:39;;;;;;;28.02;6.95;;;;;;;;;;4932493;28;20770;-67
2023/01/08 07:40:06;;;;;;;31.00;7.28;;;;;;;;;;4926866;28;20027;-67
2023/01/08 07:42:32;;;;;;;25.70;6.43;;;;;;;;;;4948179;28;20112;-67
2023/01/08 07:44:58;;;;;;;28.42;6.93;;;;;;;;;;4929245;28;20030;-67
2023/01/08 07:47:24;;;;;;;24.13;6.72;;;;;;;;;;4933308;28;20421;-68
2023/01/08 07:49:50;;;;;;;29.15;7.25;;;;;;;;;;4929158;28;20445;-68
2023/01/08 07:52:16;;;;;;;24.85;6.75;;;;;;;;;;4935653;28;20157;-65
2023/01/08 07:54:43;;;;;;;21.13;6.00;;;;;;;;;;4933529;28;20470;-68
2023/01/08 07:57:09;;;;;;;25.25;7.15;;;;;;;;;;4928379;28;20041;-68
2023/01/08 07:59:35;;;;;;;24.08;6.97;;;;;;;;;;4944982;28;20513;-69
2023/01/08 08:02:01;;;;;;;27.75;6.70;;;;;;;;;;4931337;28;20043;-67
2023/01/08 08:04:28;;;;;;;23.00;6.13;;;;;;;;;;4929629;28;20302;-68
2023/01/08 08:06:54;;;;;;;26.02;6.43;;;;;;;;;;4945327;28;20069;-64
2023/01/08 08:09:21;;;;;;;23.63;6.25;;;;;;;;;;4932479;28;20041;-69
2023/01/08 08:11:47;;;;;;;22.80;5.80;;;;;;;;;;4940579;28;20861;-69
2023/01/08 08:14:13;;;;;;;22.55;6.20;;;;;;;;;;4924986;28;20122;-69
2023/01/08 08:16:39;;;;;;;26.77;6.72;;;;;;;;;;4941728;28;20039;-67
2023/01/08 08:19:05;;;;;;;26.08;6.97;;;;;;;;;;4929290;28;20047;-70
2023/01/08 08:21:31;;;;;;;25.00;6.65;;;;;;;;;;4933081;28;20057;-69
2023/01/08 08:23:57;;;;;;;22.40;6.32;;;;;;;;;;4925874;28;20452;-65
2023/01/08 08:26:24;;;;;;;19.63;6.03;;;;;;;;;;4933869;28;20149;-67
2023/01/08 08:28:50;;;;;;;22.30;6.50;;;;;;;;;;4944095;28;20105;-64
2023/01/08 08:31:16;;;;;;;24.13;6.25;;;;;;;;;;4929077;28;20438;-70
2023/01/08 08:33:42;;;;;;;22.33;6.20;;;;;;;;;;4929253;28;20435;-68
2023/01/08 08:36:09;;;;;;;25.30;6.45;;;;;;;;;;4928267;28;22207;-64
2023/01/08 08:38:35;;;;;;;;;;;;;;;;;;4945008;28;20055;-67
2023/01/08 08:41:01;;;;;;;27.33;7.40;;;;;;;;;;4927956;28;20356;-68
2023/01/08 08:43:27;;;;;;;26.67;6.35;;;;;;;;;;4932277;28;20035;-67
2023/01/08 08:45:55;;;;;;;20.73;6.32;;;;;;;;;;4924973;28;20481;-68
2023/01/08 08:48:21;;;;;;;27.48;6.50;;;;;;;;;;4933498;28;20541;-68
2023/01/08 08:50:47;;;;;;;23.67;6.05;;;;;;;;;;4932852;28;20030;-67
2023/01/08 08:53:14;;;;;;;23.90;5.78;;;;;;;;;;4927846;28;20069;-68
2023/01/08 08:55:40;;;;;;;;;;;;;;;;;;4932239;28;20041;-69
2023/01/08 08:58:09;;;;;;;27.58;6.32;;;;;;;;;;4925926;28;20269;-68
2023/01/08 09:00:35;;;;;;;22.20;6.40;;;;;;;;;;4930484;28;20030;-65
2023/01/08 09:03:02;;;;;;;22.27;5.68;;;;;;;;;;4925870;28;20039;-68
2023/01/08 09:05:29;;;;;;;22.55;5.65;;;;;;;;;;4928245;28;20058;-67
2023/01/08 09:07:55;;;;;;;21.20;5.13;;;;;;;;;;4921443;28;20030;-68
2023/01/08 09:10:22;;;;;;;21.15;5.13;;;;;;;;;;4941124;28;20077;-67
2023/01/08 09:12:48;;;;;;;18.58;4.50;;;;;;;;;;4925040;28;20488;-69
2023/01/08 09:15:14;;;;;;;;;;;;;;;;;;4929627;28;20035;-68
2023/01/08 09:17:40;;;;;;;17.77;4.90;;;;;;;;;;4928630;28;19914;-68
2023/01/08 09:20:07;;;;;;;20.63;4.78;;;;;;;;;;4925163;28;20687;-66
2023/01/08 09:22:33;;;;;;;22.60;5.05;;;;;;;;;;4927394;28;20074;-68
2023/01/08 09:24:59;;;;;;;22.38;5.28;;;;;;;;;;4937034;28;20331;-68
2023/01/08 09:27:25;;;;;;;18.85;5.45;;;;;;;;;;4926950;28;20122;-68
2023/01/08 09:29:51;;;;;;;20.50;5.95;;;;;;;;;;4926505;28;20378;-68
2023/01/08 09:32:18;;;;;;;17.30;4.68;;;;;;;;;;4926388;28;20039;-68
2023/01/08 09:34:44;;;;;;;21.40;4.93;;;;;;;;;;4926118;28;20577;-68
2023/01/08 09:37:10;;;;;;;;;;;;;;;;;;4925068;28;20098;-68
2023/01/08 09:39:36;;;;;;;20.95;4.60;;;;;;;;;;4941160;28;20556;-71
2023/01/08 09:42:02;;;;;;;;;;;;;;;;;;4910453;28;20043;-69
2023/01/08 09:44:30;;;;;;;19.80;5.43;;;;;;;;;;4924543;28;19914;-71
2023/01/08 09:46:57;;;;;;;20.48;5.68;;;;;;;;;;4921848;28;20038;-71
2023/01/08 09:49:33;;;;;;;23.55;6.40;;;;;;;;;;4931165;28;20031;-66
2023/01/08 09:51:59;;;;;;;21.00;6.25;;;;;;;;;;4923364;28;20081;-67
2023/01/08 09:54:25;;;;;;;;;;;;;;;;;;4931615;28;20649;-70
2023/01/08 09:56:52;;;;;;;18.83;5.93;;;;;;;;;;4927790;28;22335;-66
2023/01/08 09:59:18;;;;;;;20.10;6.20;;;;;;;;;;4931007;28;21865;-70
2023/01/08 10:01:45;;;;;;;24.70;6.03;;;;;;;;;;4928507;28;20645;-72
2023/01/08 10:04:21;;;;;;;23.55;5.80;;;;;;;;;;4927776;28;20042;-72
2023/01/08 10:06:52;;;;;;;20.45;5.53;;;;;;;;;;4926386;28;20342;-69
2023/01/08 10:09:20;;;;;;;26.58;6.75;;;;;;;;;;4937526;28;20137;-71
2023/01/08 10:11:48;;;;;;;29.67;7.43;;;;;;;;;;4924039;28;20076;-68
2023/01/08 10:14:20;;;;;;;20.88;6.80;;;;;;;;;;4923416;28;20118;-67
2023/01/08 10:16:47;;;;;;;26.00;8.00;;;;;;;;;;4925758;28;20480;-70
2023/01/08 10:19:13;;;;;;;25.95;7.38;;;;;;;;;;4924244;28;20050;-68
2023/01/08 10:21:39;;;;;;;;;;;;;;;;;;4925947;28;20037;-69
2023/01/08 10:24:05;;;;;;;24.98;6.38;;;;;;;;;;4923984;28;20325;-72
2023/01/08 10:26:36;;;;;;;23.70;6.53;;;;;;;;;;4930131;28;20055;-69
2023/01/08 10:29:21;;;;;;;22.02;6.20;;;;;;;;;;4939286;28;20054;-69
2023/01/08 10:31:51;;;;;;;22.40;6.07;;;;;;;;;;4929322;28;21685;-71
2023/01/08 10:34:25;;;;;;;21.08;6.32;;;;;;;;;;4940239;28;20432;-69
2023/01/08 10:36:52;;;;;;;26.98;7.05;;;;;;;;;;4924170;28;20055;-68
2023/01/08 10:39:29;;;;;;;19.52;5.68;;;;;;;;;;4930126;28;20031;-69
2023/01/08 10:41:57;;;;;;;22.70;6.20;;;;;;;;;;4921852;28;20054;-71
2023/01/08 10:44:24;;;;;;;25.85;6.32;;;;;;;;;;4930562;28;20092;-75
2023/01/08 10:46:55;;;;;;;29.23;6.53;;;;;;;;;;4925370;28;20397;-69
2023/01/08 10:49:48;;;;;;;20.88;5.60;;;;;;;;;;4927058;28;20061;-72
2023/01/08 10:52:28;;;;;;;26.25;6.75;;;;;;;;;;4928772;28;20069;-68
2023/01/08 10:54:54;;;;;;;23.38;6.45;;;;;;;;;;4927711;28;20462;-69
2023/01/08 10:57:25;;;;;;;24.35;6.63;;;;;;;;;;4930621;28;20030;-72
2023/01/08 10:59:52;;;;;;;24.63;6.65;;;;;;;;;;4938915;28;20387;-67
2023/01/08 11:02:21;;;;;;;20.90;6.78;;;;;;;;;;4929604;28;20522;-68
2023/01/08 11:04:50;;;;;;;24.23;6.15;;;;;;;;;;4927906;28;20037;-74
2023/01/08 11:07:19;;;;;;;25.52;6.70;;;;;;;;;;4930984;28;20389;-63
2023/01/08 11:09:47;;;;;;;22.02;6.13;;;;;;;;;;4928759;28;20034;-68
2023/01/08 11:12:37;;;;;;;23.85;6.22;;;;;;;;;;4929723;28;20041;-71
2023/01/08 11:15:06;;;;;;;25.92;7.28;;;;;;;;;;4920607;28;20039;-72
2023/01/08 11:17:32;;;;;;;22.08;6.63;;;;;;;;;;4928976;28;20584;-66
2023/01/08 11:20:16;;;;;;;25.40;6.43;;;;;;;;;;4925412;28;20088;-67
2023/01/08 11:22:42;;;;;;;21.55;6.47;;;;;;;;;;4930900;28;20046;-66
2023/01/08 11:25:08;;;;;;;;;;;;;;;;;;4924511;28;20051;-66
2023/01/08 11:27:36;;;;;;;20.98;5.90;;;;;;;;;;4941811;28;19929;-66
2023/01/08 11:30:07;;;;;;;22.35;5.90;;;;;;;;;;4941388;28;20224;-66
2023/01/08 11:32:46;;;;;;;18.02;5.57;;;;;;;;;;4927940;28;20058;-66
2023/01/08 11:35:14;;;;;;;22.83;6.00;;;;;;;;;;4942091;28;20035;-66
2023/01/08 11:37:45;;;;;;;20.08;5.78;;;;;;;;;;4947060;28;20031;-67
2023/01/08 11:40:16;;;;;;;19.20;6.10;;;;;;;;;;4930552;28;20043;-66
2023/01/08 11:42:59;;;;;;;25.45;6.28;;;;;;;;;;4928339;28;20094;-66
2023/01/08 11:45:32;;;;;;;19.67;5.55;;;;;;;;;;4939418;28;20041;-66
2023/01/08 11:48:04;;;;;;;24.85;6.45;;;;;;;;;;4928111;28;20037;-67
2023/01/08 11:50:34;;;;;;;24.63;6.35;;;;;;;;;;4942671;28;20501;-65
2023/01/08 11:53:16;;;;;;;24.33;6.72;;;;;;;;;;4928928;28;20803;-67
2023/01/08 11:55:48;;;;;;;26.13;6.53;;;;;;;;;;4930851;28;20043;-67
2023/01/08 11:58:29;;;;;;;26.00;6.30;;;;;;;;;;4928299;28;20508;-66
2023/01/08 12:00:59;;;;;;;22.75;6.97;;;;;;;;;;4924075;28;20035;-67
2023/01/08 12:03:57;;;;;;;28.77;7.70;;;;;;;;;;4946153;28;20772;-66
2023/01/08 12:06:57;;;;;;;26.40;7.50;;;;;;;;;;4882778;29;20481;-68
2023/01/08 12:09:40;;;;;;;31.88;8.23;;;;;;;;;;4814562;29;20566;-68
2023/01/08 12:12:25;;;;;;;26.85;7.10;;;;;;;;;;4811609;29;20299;-66
2023/01/08 12:14:58;;;;;;;20.52;6.50;;;;;;;;;;4807040;29;20026;-66
2023/01/08 12:17:42;;;;;;;27.67;6.90;;;;;;;;;;4811813;29;20642;-65
2023/01/08 12:20:27;;;;;;;27.95;7.30;;;;;;;;;;4796124;29;20949;-68
2023/01/08 12:23:07;;;;;;;20.80;6.57;;;;;;;;;;4809569;29;20049;-65
2023/01/08 12:25:51;;;;;;;29.27;7.18;;;;;;;;;;4814178;29;20057;-65
2023/01/08 12:28:46;;;;;;;24.20;6.47;;;;;;;;;;4815244;29;20101;-66
2023/01/08 12:31:14;;;;;;;28.08;7.88;;;;;;;;;;4811995;29;21131;-66
2023/01/08 12:33:43;;;;;;;26.00;6.65;;;;;;;;;;4811764;29;20715;-67
2023/01/08 12:36:15;;;;;;;24.50;6.90;;;;;;;;;;4810374;29;20128;-68
2023/01/08 12:38:43;;;;;;;30.00;7.03;;;;;;;;;;4810946;29;20249;-67
2023/01/08 12:41:11;;;;;;;29.00;7.15;;;;;;;;;;4814446;29;20053;-67
2023/01/08 12:43:52;;;;;;;26.02;9.07;;;;;;;;;;4840837;29;20139;-67
2023/01/08 12:46:20;;;;;;;25.80;8.40;;;;;;;;;;4942318;28;20038;-67
2023/01/08 12:48:49;;;;;;;24.58;7.65;;;;;;;;;;4931444;28;20033;-67
2023/01/08 12:51:24;;;;;;;23.50;6.65;;;;;;;;;;4927922;28;20066;-70
2023/01/08 12:53:50;;;;;;;24.33;6.75;;;;;;;;;;4926948;28;20117;-66
2023/01/08 12:56:16;;;;;;;;;;;;;;;;;;4930016;28;20035;-66
2023/01/08 12:58:45;;;;;;;26.02;6.80;;;;;;;;;;4943802;28;19918;-66
2023/01/08 13:01:11;;;;;;;20.58;6.43;;;;;;;;;;4923982;28;20038;-66
2023/01/08 13:03:37;;;;;;;;;;;;;;;;;;4945402;28;20097;-66
2023/01/08 13:06:08;;;;;;;30.83;8.48;;;;;;;;;;4924954;28;19953;-66
2023/01/08 13:08:38;;;;;;;24.98;7.40;;;;;;;;;;4928019;28;20089;-67
2023/01/08 13:11:05;;;;;;;27.30;7.20;;;;;;;;;;4923534;28;20042;-67
2023/01/08 13:13:35;;;;;;;23.45;6.80;;;;;;;;;;4927898;28;20288;-67
2023/01/08 13:16:11;;;;;;;28.17;7.93;;;;;;;;;;4925704;28;20584;-67
2023/01/08 13:18:37;;;;;;;26.90;6.95;;;;;;;;;;4930246;28;20331;-66
2023/01/08 13:21:05;;;;;;;24.77;7.10;;;;;;;;;;4925740;28;20381;-66
2023/01/08 13:23:37;;;;;;;33.67;7.50;;;;;;;;;;4924525;28;20208;-66
2023/01/08 13:26:04;;;;;;;26.05;6.90;;;;;;;;;;4936991;28;20458;-68
2023/01/08 13:28:41;;;;;;;24.85;7.50;;;;;;;;;;4926495;28;20421;-68
2023/01/08 13:31:20;;;;;;;26.48;6.95;;;;;;;;;;4928931;28;20150;-66
2023/01/08 13:33:47;;;;;;;24.27;6.55;;;;;;;;;;4930932;28;20026;-66
2023/01/08 13:36:14;;;;;;;33.45;8.98;;;;;;;;;;4927604;28;20094;-67
2023/01/08 13:38:41;;;;;;;24.35;7.75;;;;;;;;;;4921225;28;20039;-67
2023/01/08 13:41:26;;;;;;;26.88;8.05;;;;;;;;;;4925666;28;20493;-67
2023/01/08 13:44:04;;;;;;;34.17;10.55;;;;;;;;;;4925471;28;20146;-69
2023/01/08 13:46:31;;;;;;;30.73;9.38;;;;;;;;;;4944634;28;20031;-66
2023/01/08 13:49:07;;;;;;;32.67;10.07;;;;;;;;;;4921070;28;20034;-66
2023/01/08 13:51:41;;;;;;;26.67;9.65;;;;;;;;;;4925225;28;20034;-66
2023/01/08 13:54:15;;;;;;;27.88;8.55;;;;;;;;;;4919592;28;20046;-66
2023/01/08 13:56:43;;;;;;;28.10;8.25;;;;;;;;;;4927098;28;20141;-66
2023/01/08 13:59:28;;;;;;;27.65;8.07;;;;;;;;;;4922698;28;21093;-66
2023/01/08 14:01:54;;;;;;;25.63;6.95;;;;;;;;;;4925952;28;20403;-66
2023/01/08 14:04:21;;;;;;;26.33;7.70;;;;;;;;;;4925968;28;20034;-65
2023/01/08 14:06:48;;;;;;;30.98;9.55;;;;;;;;;;4930811;28;20030;-67
2023/01/08 14:09:20;;;;;;;34.55;9.95;;;;;;;;;;4939781;28;20030;-65
2023/01/08 14:11:46;;;;;;;28.10;9.50;;;;;;;;;;4938421;28;20544;-66
2023/01/08 14:14:13;;;;;;;30.80;8.52;;;;;;;;;;4937115;28;20034;-67
2023/01/08 14:16:40;;;;;;;28.80;8.52;;;;;;;;;;4938340;28;20034;-66
2023/01/08 14:19:06;;;;;;;32.10;8.63;;;;;;;;;;4935424;28;20051;-66
2023/01/08 14:21:32;;;;;;;38.53;10.00;;;;;;;;;;4935081;28;20516;-68
2023/01/08 14:23:58;;;;;;;;;;;;;;;;;;4938978;28;20031;-66
2023/01/08 14:26:35;;;;;;;42.40;13.07;;;;;;;;;;4941250;28;20000;-67
2023/01/08 14:29:03;;;;;;;34.78;10.35;;;;;;;;;;4934662;28;20026;-66
2023/01/08 14:31:30;;;;;;;42.63;14.73;;;;;;;;;;4940253;28;20031;-68
2023/01/08 14:33:58;;;;;;;36.75;11.02;;;;;;;;;;4934358;28;20243;-67
2023/01/08 14:36:24;;;;;;;38.00;12.13;;;;;;;;;;4950989;28;20430;-66
2023/01/08 14:38:51;;;;;;;40.25;11.88;;;;;;;;;;4938564;28;20395;-67
2023/01/08 14:44:20;;;;;;;40.78;17.15;;;;;;;;;;4940018;28;20069;-67
2023/01/08 14:46:47;;;;;;;33.35;11.32;;;;;;;;;;4940501;28;20035;-67
2023/01/08 14:49:33;;;;;;;34.20;10.63;;;;;;;;;;4955338;28;20034;-67